sensor_id;sensor_type;location;lat;lon;timestamp;temperature;humidity
75010;DHT22;63564;46.840;18.336;2024-03-02T00:01:57;7.34;99.99
75010;DHT22;63564;46.840;18.336;2024-03-02T00:04:58;7.39;99.99
75010;DHT22;63564;46.840;18.336;2024-03-02T00:07:59;7.36;99.99
75010;DHT22;63564;46.840;18.336;2024-03-02T00:11:00;7.30;99.99
75010;DHT22;63564;46.840;18.336;2024-03-02T00:14:03;7.30;99.99
75010;DHT22;63564;46.840;18.336;2024-03-02T00:17:03;7.20;99.99
75010;DHT22;63564;46.840;18.336;2024-03-02T00:20:03;7.15;99.99
75010;DHT22;63564;46.840;18.336;2024-03-02T00:23:10;7.11;99.99
75010;DHT22;63564;46.840;18.336;2024-03-02T00:26:12;7.10;99.99
75010;DHT22;63564;46.840;18.336;2024-03-02T00:29:16;7.05;99.99
75010;DHT22;63564;46.840;18.336;2024-03-02T00:32:17;7.04;99.99
75010;DHT22;63564;46.840;18.336;2024-03-02T00:35:17;6.99;99.89
75010;DHT22;63564;46.840;18.336;2024-03-02T00:38:18;6.87;99.94
75010;DHT22;63564;46.840;18.336;2024-03-02T00:41:25;6.86;99.83
75010;DHT22;63564;46.840;18.336;2024-03-02T00:44:27;6.71;99.99
75010;DHT22;63564;46.840;18.336;2024-03-02T00:47:29;6.86;99.63
75010;DHT22;63564;46.840;18.336;2024-03-02T00:50:30;6.87;99.30
75010;DHT22;63564;46.840;18.336;2024-03-02T00:53:31;6.79;99.20
75010;DHT22;63564;46.840;18.336;2024-03-02T00:56:35;6.79;99.25
75010;DHT22;63564;46.840;18.336;2024-03-02T00:59:35;6.69;99.08
75010;DHT22;63564;46.840;18.336;2024-03-02T01:02:36;6.66;98.91
75010;DHT22;63564;46.840;18.336;2024-03-02T01:05:36;6.72;98.43
75010;DHT22;63564;46.840;18.336;2024-03-02T01:08:37;6.50;98.86
75010;DHT22;63564;46.840;18.336;2024-03-02T01:11:38;6.49;98.81
75010;DHT22;63564;46.840;18.336;2024-03-02T01:14:38;6.44;98.86
75010;DHT22;63564;46.840;18.336;2024-03-02T01:17:39;6.48;99.03
75010;DHT22;63564;46.840;18.336;2024-03-02T01:20:39;6.35;99.23
75010;DHT22;63564;46.840;18.336;2024-03-02T01:23:39;6.28;99.64
75010;DHT22;63564;46.840;18.336;2024-03-02T01:26:40;6.18;99.99
75010;DHT22;63564;46.840;18.336;2024-03-02T01:29:40;6.24;99.80
75010;DHT22;63564;46.840;18.336;2024-03-02T01:32:40;6.18;98.89
75010;DHT22;63564;46.840;18.336;2024-03-02T01:35:41;6.00;99.23
75010;DHT22;63564;46.840;18.336;2024-03-02T01:38:41;5.85;99.37
75010;DHT22;63564;46.840;18.336;2024-03-02T01:41:42;5.76;99.99
75010;DHT22;63564;46.840;18.336;2024-03-02T01:44:42;5.80;99.99
75010;DHT22;63564;46.840;18.336;2024-03-02T01:47:42;5.80;99.99
75010;DHT22;63564;46.840;18.336;2024-03-02T01:50:43;5.80;99.99
75010;DHT22;63564;46.840;18.336;2024-03-02T01:53:43;5.89;99.99
75010;DHT22;63564;46.840;18.336;2024-03-02T01:56:44;6.00;99.99
75010;DHT22;63564;46.840;18.336;2024-03-02T01:59:46;6.07;99.37
75010;DHT22;63564;46.840;18.336;2024-03-02T02:02:48;6.03;98.71
75010;DHT22;63564;46.840;18.336;2024-03-02T02:05:48;5.97;98.92
75010;DHT22;63564;46.840;18.336;2024-03-02T02:08:49;5.85;99.58
75010;DHT22;63564;46.840;18.336;2024-03-02T02:11:50;5.89;99.68
75010;DHT22;63564;46.840;18.336;2024-03-02T02:14:50;5.97;99.28
75010;DHT22;63564;46.840;18.336;2024-03-02T02:17:51;6.04;98.93
75010;DHT22;63564;46.840;18.336;2024-03-02T02:20:51;5.94;98.85
75010;DHT22;63564;46.840;18.336;2024-03-02T02:23:51;6.00;99.22
75010;DHT22;63564;46.840;18.336;2024-03-02T02:26:52;5.96;99.16
75010;DHT22;63564;46.840;18.336;2024-03-02T02:29:52;5.83;99.27
75010;DHT22;63564;46.840;18.336;2024-03-02T02:32:53;6.01;98.49
75010;DHT22;63564;46.840;18.336;2024-03-02T02:35:53;6.18;97.42
75010;DHT22;63564;46.840;18.336;2024-03-02T02:38:54;6.11;97.20
75010;DHT22;63564;46.840;18.336;2024-03-02T02:41:54;6.04;97.64
75010;DHT22;63564;46.840;18.336;2024-03-02T02:44:55;6.00;97.98
75010;DHT22;63564;46.840;18.336;2024-03-02T02:47:55;6.00;98.21
75010;DHT22;63564;46.840;18.336;2024-03-02T02:50:55;5.90;98.53
75010;DHT22;63564;46.840;18.336;2024-03-02T02:53:56;5.86;98.65
75010;DHT22;63564;46.840;18.336;2024-03-02T02:56:56;5.89;98.50
75010;DHT22;63564;46.840;18.336;2024-03-02T02:59:57;5.86;98.52
75010;DHT22;63564;46.840;18.336;2024-03-02T03:02:57;5.81;98.55
75010;DHT22;63564;46.840;18.336;2024-03-02T03:05:57;5.80;98.60
75010;DHT22;63564;46.840;18.336;2024-03-02T03:08:58;5.87;98.41
75010;DHT22;63564;46.840;18.336;2024-03-02T03:11:58;5.90;98.34
75010;DHT22;63564;46.840;18.336;2024-03-02T03:14:58;5.93;98.07
75010;DHT22;63564;46.840;18.336;2024-03-02T03:17:59;5.96;98.09
75010;DHT22;63564;46.840;18.336;2024-03-02T03:21:00;6.11;97.68
75010;DHT22;63564;46.840;18.336;2024-03-02T03:24:00;6.25;97.16
75010;DHT22;63564;46.840;18.336;2024-03-02T03:27:01;6.24;96.88
75010;DHT22;63564;46.840;18.336;2024-03-02T03:30:01;6.18;97.22
75010;DHT22;63564;46.840;18.336;2024-03-02T03:33:03;6.10;97.80
75010;DHT22;63564;46.840;18.336;2024-03-02T03:36:03;6.20;97.69
75010;DHT22;63564;46.840;18.336;2024-03-02T03:39:04;6.25;97.52
75010;DHT22;63564;46.840;18.336;2024-03-02T03:42:06;6.32;97.51
75010;DHT22;63564;46.840;18.336;2024-03-02T03:45:07;6.29;97.74
75010;DHT22;63564;46.840;18.336;2024-03-02T03:48:07;6.39;97.60
75010;DHT22;63564;46.840;18.336;2024-03-02T03:51:08;6.38;97.86
75010;DHT22;63564;46.840;18.336;2024-03-02T03:54:08;6.41;97.80
75010;DHT22;63564;46.840;18.336;2024-03-02T03:57:08;6.41;97.83
75010;DHT22;63564;46.840;18.336;2024-03-02T04:00:09;6.39;97.86
75010;DHT22;63564;46.840;18.336;2024-03-02T04:03:10;6.50;97.99
75010;DHT22;63564;46.840;18.336;2024-03-02T04:06:10;6.63;97.73
75010;DHT22;63564;46.840;18.336;2024-03-02T04:09:11;6.69;97.36
75010;DHT22;63564;46.840;18.336;2024-03-02T04:12:11;6.68;97.40
75010;DHT22;63564;46.840;18.336;2024-03-02T04:15:13;6.75;97.03
75010;DHT22;63564;46.840;18.336;2024-03-02T04:18:13;6.69;97.03
75010;DHT22;63564;46.840;18.336;2024-03-02T04:21:13;6.71;97.24
75010;DHT22;63564;46.840;18.336;2024-03-02T04:24:14;6.59;97.29
75010;DHT22;63564;46.840;18.336;2024-03-02T04:27:14;6.53;97.50
75010;DHT22;63564;46.840;18.336;2024-03-02T04:30:15;6.62;97.15
75010;DHT22;63564;46.840;18.336;2024-03-02T04:33:15;6.59;97.15
75010;DHT22;63564;46.840;18.336;2024-03-02T04:36:15;6.55;97.30
75010;DHT22;63564;46.840;18.336;2024-03-02T04:39:16;6.56;97.19
75010;DHT22;63564;46.840;18.336;2024-03-02T04:42:16;6.61;97.15
75010;DHT22;63564;46.840;18.336;2024-03-02T04:45:17;6.68;96.80
75010;DHT22;63564;46.840;18.336;2024-03-02T04:48:17;6.66;96.84
75010;DHT22;63564;46.840;18.336;2024-03-02T04:51:18;6.77;96.74
75010;DHT22;63564;46.840;18.336;2024-03-02T04:54:18;6.79;96.71
75010;DHT22;63564;46.840;18.336;2024-03-02T04:57:19;6.76;96.79
75010;DHT22;63564;46.840;18.336;2024-03-02T05:00:19;6.68;97.52
75010;DHT22;63564;46.840;18.336;2024-03-02T05:03:19;6.69;97.62
75010;DHT22;63564;46.840;18.336;2024-03-02T05:06:20;6.69;97.73
75010;DHT22;63564;46.840;18.336;2024-03-02T05:09:20;6.76;97.63
75010;DHT22;63564;46.840;18.336;2024-03-02T05:12:20;6.76;97.74
75010;DHT22;63564;46.840;18.336;2024-03-02T05:15:23;6.94;97.46
75010;DHT22;63564;46.840;18.336;2024-03-02T05:18:24;7.05;97.08
75010;DHT22;63564;46.840;18.336;2024-03-02T05:21:24;7.03;97.19
75010;DHT22;63564;46.840;18.336;2024-03-02T05:24:25;7.07;97.25
75010;DHT22;63564;46.840;18.336;2024-03-02T05:27:28;7.28;96.91
75010;DHT22;63564;46.840;18.336;2024-03-02T05:30:28;7.27;97.00
75010;DHT22;63564;46.840;18.336;2024-03-02T05:33:28;7.21;97.32
75010;DHT22;63564;46.840;18.336;2024-03-02T05:36:31;7.25;97.52
75010;DHT22;63564;46.840;18.336;2024-03-02T05:39:32;7.27;97.73
75010;DHT22;63564;46.840;18.336;2024-03-02T05:42:32;7.31;97.54
75010;DHT22;63564;46.840;18.336;2024-03-02T05:45:32;7.42;97.48
75010;DHT22;63564;46.840;18.336;2024-03-02T05:48:33;7.38;97.68
75010;DHT22;63564;46.840;18.336;2024-03-02T05:51:33;7.41;97.60
75010;DHT22;63564;46.840;18.336;2024-03-02T05:54:33;7.39;97.73
75010;DHT22;63564;46.840;18.336;2024-03-02T05:57:34;7.48;97.61
75010;DHT22;63564;46.840;18.336;2024-03-02T06:00:54;7.45;97.57
75010;DHT22;63564;46.840;18.336;2024-03-02T06:03:56;7.38;98.11
75010;DHT22;63564;46.840;18.336;2024-03-02T06:06:56;7.51;97.77
75010;DHT22;63564;46.840;18.336;2024-03-02T06:09:56;7.52;97.80
75010;DHT22;63564;46.840;18.336;2024-03-02T06:12:57;7.41;98.24
75010;DHT22;63564;46.840;18.336;2024-03-02T06:15:59;7.45;98.18
75010;DHT22;63564;46.840;18.336;2024-03-02T06:18:59;7.52;98.29
75010;DHT22;63564;46.840;18.336;2024-03-02T06:22:00;7.44;98.57
75010;DHT22;63564;46.840;18.336;2024-03-02T06:25:00;7.56;98.52
75010;DHT22;63564;46.840;18.336;2024-03-02T06:28:00;7.72;97.97
75010;DHT22;63564;46.840;18.336;2024-03-02T06:31:02;7.76;98.05
75010;DHT22;63564;46.840;18.336;2024-03-02T06:34:02;7.86;97.75
75010;DHT22;63564;46.840;18.336;2024-03-02T06:37:04;7.94;97.56
75010;DHT22;63564;46.840;18.336;2024-03-02T06:40:06;7.90;98.01
75010;DHT22;63564;46.840;18.336;2024-03-02T06:43:07;8.01;98.03
75010;DHT22;63564;46.840;18.336;2024-03-02T06:46:08;8.04;97.89
75010;DHT22;63564;46.840;18.336;2024-03-02T06:49:09;8.18;97.80
75010;DHT22;63564;46.840;18.336;2024-03-02T06:52:10;8.34;97.49
75010;DHT22;63564;46.840;18.336;2024-03-02T06:55:11;8.08;98.23
75010;DHT22;63564;46.840;18.336;2024-03-02T06:58:14;8.14;98.39
75010;DHT22;63564;46.840;18.336;2024-03-02T07:01:15;8.25;98.56
75010;DHT22;63564;46.840;18.336;2024-03-02T07:04:16;8.27;98.49
75010;DHT22;63564;46.840;18.336;2024-03-02T07:07:16;8.24;98.63
75010;DHT22;63564;46.840;18.336;2024-03-02T07:10:16;8.35;98.54
75010;DHT22;63564;46.840;18.336;2024-03-02T07:13:17;8.34;98.39
75010;DHT22;63564;46.840;18.336;2024-03-02T07:16:17;8.44;98.64
75010;DHT22;63564;46.840;18.336;2024-03-02T07:19:32;8.49;98.34
75010;DHT22;63564;46.840;18.336;2024-03-02T07:22:33;8.54;98.01
75010;DHT22;63564;46.840;18.336;2024-03-02T07:25:33;8.65;98.13
75010;DHT22;63564;46.840;18.336;2024-03-02T07:28:34;8.65;98.25
75010;DHT22;63564;46.840;18.336;2024-03-02T07:31:34;8.69;98.28
75010;DHT22;63564;46.840;18.336;2024-03-02T07:34:36;8.76;97.94
75010;DHT22;63564;46.840;18.336;2024-03-02T07:37:37;8.61;98.15
75010;DHT22;63564;46.840;18.336;2024-03-02T07:40:38;8.75;98.27
75010;DHT22;63564;46.840;18.336;2024-03-02T07:43:38;8.75;98.40
75010;DHT22;63564;46.840;18.336;2024-03-02T07:46:38;8.80;98.21
75010;DHT22;63564;46.840;18.336;2024-03-02T07:49:39;8.75;98.10
75010;DHT22;63564;46.840;18.336;2024-03-02T07:52:39;8.72;98.29
75010;DHT22;63564;46.840;18.336;2024-03-02T07:55:39;8.99;98.30
75010;DHT22;63564;46.840;18.336;2024-03-02T07:58:40;9.21;97.20
75010;DHT22;63564;46.840;18.336;2024-03-02T08:01:42;8.92;98.31
75010;DHT22;63564;46.840;18.336;2024-03-02T08:04:42;9.26;97.71
75010;DHT22;63564;46.840;18.336;2024-03-02T08:07:43;8.97;98.36
75010;DHT22;63564;46.840;18.336;2024-03-02T08:10:44;9.14;97.82
75010;DHT22;63564;46.840;18.336;2024-03-02T08:13:44;9.41;97.38
75010;DHT22;63564;46.840;18.336;2024-03-02T08:16:45;9.26;96.91
75010;DHT22;63564;46.840;18.336;2024-03-02T08:19:45;9.37;97.07
75010;DHT22;63564;46.840;18.336;2024-03-02T08:22:48;9.54;96.33
75010;DHT22;63564;46.840;18.336;2024-03-02T08:25:48;9.66;96.10
75010;DHT22;63564;46.840;18.336;2024-03-02T08:28:49;9.68;95.56
75010;DHT22;63564;46.840;18.336;2024-03-02T08:31:49;9.82;95.43
75010;DHT22;63564;46.840;18.336;2024-03-02T08:34:49;9.83;95.25
75010;DHT22;63564;46.840;18.336;2024-03-02T08:37:50;9.79;95.59
75010;DHT22;63564;46.840;18.336;2024-03-02T08:40:51;9.57;96.12
75010;DHT22;63564;46.840;18.336;2024-03-02T08:43:51;9.78;95.14
75010;DHT22;63564;46.840;18.336;2024-03-02T08:46:52;9.85;94.91
75010;DHT22;63564;46.840;18.336;2024-03-02T08:49:52;10.02;94.23
75010;DHT22;63564;46.840;18.336;2024-03-02T08:52:53;10.24;93.73
75010;DHT22;63564;46.840;18.336;2024-03-02T08:55:53;10.07;93.63
75010;DHT22;63564;46.840;18.336;2024-03-02T08:58:55;10.07;93.41
75010;DHT22;63564;46.840;18.336;2024-03-02T09:01:55;10.38;92.32
75010;DHT22;63564;46.840;18.336;2024-03-02T09:04:56;10.34;91.99
75010;DHT22;63564;46.840;18.336;2024-03-02T09:07:56;10.52;93.14
75010;DHT22;63564;46.840;18.336;2024-03-02T09:10:57;10.60;90.97
75010;DHT22;63564;46.840;18.336;2024-03-02T09:13:57;10.78;91.34
75010;DHT22;63564;46.840;18.336;2024-03-02T09:16:58;10.89;89.71
75010;DHT22;63564;46.840;18.336;2024-03-02T09:19:58;10.73;90.88
75010;DHT22;63564;46.840;18.336;2024-03-02T09:22:58;10.99;89.94
75010;DHT22;63564;46.840;18.336;2024-03-02T09:25:59;10.85;90.85
75010;DHT22;63564;46.840;18.336;2024-03-02T09:28:59;11.13;90.01
75010;DHT22;63564;46.840;18.336;2024-03-02T09:32:00;11.03;89.45
75010;DHT22;63564;46.840;18.336;2024-03-02T09:35:00;10.86;89.16
75010;DHT22;63564;46.840;18.336;2024-03-02T09:38:01;10.67;90.14
75010;DHT22;63564;46.840;18.336;2024-03-02T09:41:01;10.82;89.41
75010;DHT22;63564;46.840;18.336;2024-03-02T09:44:02;11.08;89.10
75010;DHT22;63564;46.840;18.336;2024-03-02T09:47:03;10.98;90.47
75010;DHT22;63564;46.840;18.336;2024-03-02T09:50:04;10.91;90.65
75010;DHT22;63564;46.840;18.336;2024-03-02T09:53:04;10.98;89.45
75010;DHT22;63564;46.840;18.336;2024-03-02T09:56:05;11.16;90.29
75010;DHT22;63564;46.840;18.336;2024-03-02T09:59:06;11.23;88.49
75010;DHT22;63564;46.840;18.336;2024-03-02T10:02:06;11.20;88.62
75010;DHT22;63564;46.840;18.336;2024-03-02T10:05:10;11.54;87.66
75010;DHT22;63564;46.840;18.336;2024-03-02T10:08:10;11.37;88.16
75010;DHT22;63564;46.840;18.336;2024-03-02T10:11:10;11.28;88.76
75010;DHT22;63564;46.840;18.336;2024-03-02T10:14:12;11.73;86.95
75010;DHT22;63564;46.840;18.336;2024-03-02T10:17:13;11.31;87.64
75010;DHT22;63564;46.840;18.336;2024-03-02T10:20:41;10.81;89.87
75010;DHT22;63564;46.840;18.336;2024-03-02T10:23:42;11.03;89.13
75010;DHT22;63564;46.840;18.336;2024-03-02T10:26:42;10.91;90.49
75010;DHT22;63564;46.840;18.336;2024-03-02T10:29:46;10.62;90.68
75010;DHT22;63564;46.840;18.336;2024-03-02T10:32:49;10.89;90.56
75010;DHT22;63564;46.840;18.336;2024-03-02T10:35:49;11.08;89.21
75010;DHT22;63564;46.840;18.336;2024-03-02T10:38:50;11.24;87.88
75010;DHT22;63564;46.840;18.336;2024-03-02T10:41:56;11.16;88.59
75010;DHT22;63564;46.840;18.336;2024-03-02T10:44:57;10.96;90.24
75010;DHT22;63564;46.840;18.336;2024-03-02T10:47:57;11.09;90.16
75010;DHT22;63564;46.840;18.336;2024-03-02T10:50:58;11.34;88.85
75010;DHT22;63564;46.840;18.336;2024-03-02T10:54:02;11.34;88.73
75010;DHT22;63564;46.840;18.336;2024-03-02T10:57:07;11.13;89.74
75010;DHT22;63564;46.840;18.336;2024-03-02T11:00:12;11.37;89.00
75010;DHT22;63564;46.840;18.336;2024-03-02T11:03:15;10.89;90.80
75010;DHT22;63564;46.840;18.336;2024-03-02T11:06:15;10.96;90.56
75010;DHT22;63564;46.840;18.336;2024-03-02T11:09:21;10.61;91.93
75010;DHT22;63564;46.840;18.336;2024-03-02T11:12:29;11.08;91.32
75010;DHT22;63564;46.840;18.336;2024-03-02T11:15:31;11.05;89.76
75010;DHT22;63564;46.840;18.336;2024-03-02T11:18:34;11.03;90.41
75010;DHT22;63564;46.840;18.336;2024-03-02T11:21:36;11.09;90.60
75010;DHT22;63564;46.840;18.336;2024-03-02T11:24:36;10.69;91.84
75010;DHT22;63564;46.840;18.336;2024-03-02T11:33:46;10.24;93.75
75010;DHT22;63564;46.840;18.336;2024-03-02T11:36:47;10.24;93.50
75010;DHT22;63564;46.840;18.336;2024-03-02T11:39:50;10.21;93.74
75010;DHT22;63564;46.840;18.336;2024-03-02T11:42:51;10.23;93.72
75010;DHT22;63564;46.840;18.336;2024-03-02T11:46:05;10.27;93.88
75010;DHT22;63564;46.840;18.336;2024-03-02T11:49:08;10.27;94.20
75010;DHT22;63564;46.840;18.336;2024-03-02T11:52:10;10.38;93.76
75010;DHT22;63564;46.840;18.336;2024-03-02T11:55:11;10.54;92.77
75010;DHT22;63564;46.840;18.336;2024-03-02T11:58:13;10.69;92.44
75010;DHT22;63564;46.840;18.336;2024-03-02T12:01:13;10.85;92.12
75010;DHT22;63564;46.840;18.336;2024-03-02T12:04:14;10.99;90.81
75010;DHT22;63564;46.840;18.336;2024-03-02T12:07:32;10.98;91.35
75010;DHT22;63564;46.840;18.336;2024-03-02T12:10:34;10.96;91.03
75010;DHT22;63564;46.840;18.336;2024-03-02T12:13:34;10.93;91.04
75010;DHT22;63564;46.840;18.336;2024-03-02T12:16:35;11.06;90.76
75010;DHT22;63564;46.840;18.336;2024-03-02T12:19:37;11.00;91.18
75010;DHT22;63564;46.840;18.336;2024-03-02T12:22:38;10.83;91.24
75010;DHT22;63564;46.840;18.336;2024-03-02T12:25:38;10.73;91.43
75010;DHT22;63564;46.840;18.336;2024-03-02T12:28:38;10.71;91.34
75010;DHT22;63564;46.840;18.336;2024-03-02T12:31:39;10.48;93.15
75010;DHT22;63564;46.840;18.336;2024-03-02T12:34:39;10.43;92.75
75010;DHT22;63564;46.840;18.336;2024-03-02T12:37:49;10.50;92.53
75010;DHT22;63564;46.840;18.336;2024-03-02T12:40:51;10.55;92.43
75010;DHT22;63564;46.840;18.336;2024-03-02T12:43:52;10.73;91.57
75010;DHT22;63564;46.840;18.336;2024-03-02T12:46:54;10.62;91.93
75010;DHT22;63564;46.840;18.336;2024-03-02T12:49:55;10.60;91.80
75010;DHT22;63564;46.840;18.336;2024-03-02T12:52:56;10.57;92.49
75010;DHT22;63564;46.840;18.336;2024-03-02T12:55:56;10.75;92.02
75010;DHT22;63564;46.840;18.336;2024-03-02T12:58:57;11.03;90.68
75010;DHT22;63564;46.840;18.336;2024-03-02T13:01:58;10.89;91.19
75010;DHT22;63564;46.840;18.336;2024-03-02T13:04:58;11.05;90.39
75010;DHT22;63564;46.840;18.336;2024-03-02T13:07:59;11.08;91.08
75010;DHT22;63564;46.840;18.336;2024-03-02T13:11:00;11.10;91.12
75010;DHT22;63564;46.840;18.336;2024-03-02T13:14:00;10.93;91.42
75010;DHT22;63564;46.840;18.336;2024-03-02T13:17:01;11.02;90.82
75010;DHT22;63564;46.840;18.336;2024-03-02T13:20:04;11.00;90.49
75010;DHT22;63564;46.840;18.336;2024-03-02T13:23:08;11.15;90.19
75010;DHT22;63564;46.840;18.336;2024-03-02T13:26:08;11.05;90.23
75010;DHT22;63564;46.840;18.336;2024-03-02T13:29:10;10.99;90.33
75010;DHT22;63564;46.840;18.336;2024-03-02T13:32:11;10.98;90.52
75010;DHT22;63564;46.840;18.336;2024-03-02T13:35:11;11.19;89.79
75010;DHT22;63564;46.840;18.336;2024-03-02T13:38:11;11.12;89.82
75010;DHT22;63564;46.840;18.336;2024-03-02T13:41:12;11.19;89.94
75010;DHT22;63564;46.840;18.336;2024-03-02T13:44:12;11.23;90.46
75010;DHT22;63564;46.840;18.336;2024-03-02T13:47:12;11.20;89.77
75010;DHT22;63564;46.840;18.336;2024-03-02T13:50:13;11.27;89.77
75010;DHT22;63564;46.840;18.336;2024-03-02T13:53:14;11.41;89.62
75010;DHT22;63564;46.840;18.336;2024-03-02T13:56:14;11.53;88.34
75010;DHT22;63564;46.840;18.336;2024-03-02T13:59:15;11.36;88.93
75010;DHT22;63564;46.840;18.336;2024-03-02T14:02:15;11.44;89.34
75010;DHT22;63564;46.840;18.336;2024-03-02T14:05:15;11.26;88.91
75010;DHT22;63564;46.840;18.336;2024-03-02T14:08:16;11.27;89.36
75010;DHT22;63564;46.840;18.336;2024-03-02T14:11:18;11.61;87.06
75010;DHT22;63564;46.840;18.336;2024-03-02T14:14:18;11.89;85.98
75010;DHT22;63564;46.840;18.336;2024-03-02T14:17:18;11.91;87.10
75010;DHT22;63564;46.840;18.336;2024-03-02T14:20:19;12.06;87.09
75010;DHT22;63564;46.840;18.336;2024-03-02T14:23:22;12.11;86.83
75010;DHT22;63564;46.840;18.336;2024-03-02T14:26:22;12.28;85.58
75010;DHT22;63564;46.840;18.336;2024-03-02T14:29:22;12.11;86.31
75010;DHT22;63564;46.840;18.336;2024-03-02T14:32:23;12.19;86.49
75010;DHT22;63564;46.840;18.336;2024-03-02T14:35:23;12.06;86.49
75010;DHT22;63564;46.840;18.336;2024-03-02T14:38:24;12.19;85.93
75010;DHT22;63564;46.840;18.336;2024-03-02T14:41:24;12.33;86.10
75010;DHT22;63564;46.840;18.336;2024-03-02T14:44:25;12.41;85.35
75010;DHT22;63564;46.840;18.336;2024-03-02T14:47:26;12.23;85.98
75010;DHT22;63564;46.840;18.336;2024-03-02T14:50:27;12.15;87.67
75010;DHT22;63564;46.840;18.336;2024-03-02T14:53:28;12.32;85.52
75010;DHT22;63564;46.840;18.336;2024-03-02T14:56:28;12.15;85.70
75010;DHT22;63564;46.840;18.336;2024-03-02T14:59:28;11.81;85.91
75010;DHT22;63564;46.840;18.336;2024-03-02T15:02:30;12.09;84.73
75010;DHT22;63564;46.840;18.336;2024-03-02T15:05:30;12.19;85.20
75010;DHT22;63564;46.840;18.336;2024-03-02T15:08:30;12.19;85.70
75010;DHT22;63564;46.840;18.336;2024-03-02T15:11:31;12.44;84.37
75010;DHT22;63564;46.840;18.336;2024-03-02T15:14:31;12.36;84.66
75010;DHT22;63564;46.840;18.336;2024-03-02T15:17:32;12.56;84.99
75010;DHT22;63564;46.840;18.336;2024-03-02T15:20:32;12.50;85.29
75010;DHT22;63564;46.840;18.336;2024-03-02T15:23:32;13.09;83.01
75010;DHT22;63564;46.840;18.336;2024-03-02T15:26:34;13.09;83.19
75010;DHT22;63564;46.840;18.336;2024-03-02T15:29:35;12.76;83.08
75010;DHT22;63564;46.840;18.336;2024-03-02T15:32:35;12.40;84.30
75010;DHT22;63564;46.840;18.336;2024-03-02T15:35:37;12.03;85.93
75010;DHT22;63564;46.840;18.336;2024-03-02T15:38:37;12.06;85.65
75010;DHT22;63564;46.840;18.336;2024-03-02T15:41:37;12.29;85.01
75010;DHT22;63564;46.840;18.336;2024-03-02T15:44:40;12.09;85.77
75010;DHT22;63564;46.840;18.336;2024-03-02T15:47:41;11.95;86.36
75010;DHT22;63564;46.840;18.336;2024-03-02T15:50:42;11.75;87.01
75010;DHT22;63564;46.840;18.336;2024-03-02T15:53:42;11.44;88.20
75010;DHT22;63564;46.840;18.336;2024-03-02T15:56:43;11.40;88.08
75010;DHT22;63564;46.840;18.336;2024-03-02T15:59:44;11.16;89.22
75010;DHT22;63564;46.840;18.336;2024-03-02T16:02:45;11.05;89.77
75010;DHT22;63564;46.840;18.336;2024-03-02T16:05:45;10.75;90.51
75010;DHT22;63564;46.840;18.336;2024-03-02T16:08:45;10.81;90.33
75010;DHT22;63564;46.840;18.336;2024-03-02T16:11:46;10.67;91.04
75010;DHT22;63564;46.840;18.336;2024-03-02T16:14:46;10.51;91.91
75010;DHT22;63564;46.840;18.336;2024-03-02T16:17:46;10.37;92.79
75010;DHT22;63564;46.840;18.336;2024-03-02T16:20:47;10.33;92.85
75010;DHT22;63564;46.840;18.336;2024-03-02T16:23:47;10.24;92.95
75010;DHT22;63564;46.840;18.336;2024-03-02T16:26:47;10.13;93.42
75010;DHT22;63564;46.840;18.336;2024-03-02T16:29:48;9.96;93.83
75010;DHT22;63564;46.840;18.336;2024-03-02T16:32:48;9.75;95.20
75010;DHT22;63564;46.840;18.336;2024-03-02T16:35:48;9.51;96.36
75010;DHT22;63564;46.840;18.336;2024-03-02T16:38:49;9.57;96.96
75010;DHT22;63564;46.840;18.336;2024-03-02T16:41:50;9.51;97.07
75010;DHT22;63564;46.840;18.336;2024-03-02T16:44:51;9.39;97.01
75010;DHT22;63564;46.840;18.336;2024-03-02T16:47:54;9.34;97.01
75010;DHT22;63564;46.840;18.336;2024-03-02T16:50:55;9.23;97.28
75010;DHT22;63564;46.840;18.336;2024-03-02T16:53:55;9.14;97.56
75010;DHT22;63564;46.840;18.336;2024-03-02T16:56:55;9.03;98.13
75010;DHT22;63564;46.840;18.336;2024-03-02T16:59:56;8.87;98.33
75010;DHT22;63564;46.840;18.336;2024-03-02T17:02:56;8.75;98.28
75010;DHT22;63564;46.840;18.336;2024-03-02T17:05:57;8.68;98.49
75010;DHT22;63564;46.840;18.336;2024-03-02T17:08:57;8.52;98.84
75010;DHT22;63564;46.840;18.336;2024-03-02T17:11:58;8.41;98.87
75010;DHT22;63564;46.840;18.336;2024-03-02T17:14:58;8.33;99.03
75010;DHT22;63564;46.840;18.336;2024-03-02T17:17:59;8.28;98.94
75010;DHT22;63564;46.840;18.336;2024-03-02T17:20:59;8.13;99.40
75010;DHT22;63564;46.840;18.336;2024-03-02T17:23:59;8.03;99.73
75010;DHT22;63564;46.840;18.336;2024-03-02T17:27:02;7.83;99.87
75010;DHT22;63564;46.840;18.336;2024-03-02T17:30:03;7.80;99.67
75010;DHT22;63564;46.840;18.336;2024-03-02T17:33:04;7.65;99.71
75010;DHT22;63564;46.840;18.336;2024-03-02T17:36:04;7.55;99.84
75010;DHT22;63564;46.840;18.336;2024-03-02T17:39:05;7.44;99.99
75010;DHT22;63564;46.840;18.336;2024-03-02T17:42:05;7.39;99.99
75010;DHT22;63564;46.840;18.336;2024-03-02T17:45:06;7.45;99.99
75010;DHT22;63564;46.840;18.336;2024-03-02T17:48:07;7.44;99.99
75010;DHT22;63564;46.840;18.336;2024-03-02T17:51:07;7.48;99.99
75010;DHT22;63564;46.840;18.336;2024-03-02T17:54:08;7.48;99.99
75010;DHT22;63564;46.840;18.336;2024-03-02T17:57:08;7.51;99.99
75010;DHT22;63564;46.840;18.336;2024-03-02T18:00:09;7.52;99.99
75010;DHT22;63564;46.840;18.336;2024-03-02T18:03:14;7.47;99.99
75010;DHT22;63564;46.840;18.336;2024-03-02T18:06:14;7.48;99.99
75010;DHT22;63564;46.840;18.336;2024-03-02T18:09:14;7.54;99.99
75010;DHT22;63564;46.840;18.336;2024-03-02T18:12:15;7.44;99.99
75010;DHT22;63564;46.840;18.336;2024-03-02T18:15:15;7.38;99.99
75010;DHT22;63564;46.840;18.336;2024-03-02T18:18:16;7.36;99.99
75010;DHT22;63564;46.840;18.336;2024-03-02T18:21:16;7.22;99.99
75010;DHT22;63564;46.840;18.336;2024-03-02T18:24:17;7.10;99.99
75010;DHT22;63564;46.840;18.336;2024-03-02T18:27:18;7.00;99.99
75010;DHT22;63564;46.840;18.336;2024-03-02T18:30:19;6.90;99.99
75010;DHT22;63564;46.840;18.336;2024-03-02T18:33:19;6.87;99.99
75010;DHT22;63564;46.840;18.336;2024-03-02T18:36:20;6.91;99.99
75010;DHT22;63564;46.840;18.336;2024-03-02T18:39:20;6.89;99.99
75010;DHT22;63564;46.840;18.336;2024-03-02T18:42:20;6.87;99.99
75010;DHT22;63564;46.840;18.336;2024-03-02T18:45:21;6.91;99.99
75010;DHT22;63564;46.840;18.336;2024-03-02T18:48:21;6.94;99.99
75010;DHT22;63564;46.840;18.336;2024-03-02T18:51:21;6.90;99.99
75010;DHT22;63564;46.840;18.336;2024-03-02T18:54:22;6.84;99.99
75010;DHT22;63564;46.840;18.336;2024-03-02T18:57:22;6.87;99.99
75010;DHT22;63564;46.840;18.336;2024-03-02T19:00:23;6.83;99.99
75010;DHT22;63564;46.840;18.336;2024-03-02T19:03:23;6.80;99.99